Time;durP1;ratioP1;P1;durP2;ratioP2;P2;SDS_P1;SDS_P2;PMS_P1;PMS_P2;Temp;Humidity;BMP_temperature;BMP_pressure;BME280_temperature;BME280_humidity;BME280_pressure;Samples;Min_cycle;Max_cycle;Signal;HPM_P1;HPM_P2
2021/04/30 00:01:35;;;;;;;3.25;2.63;;;7.80;84.40;;;;;;5014127;28;20072;-71
2021/04/30 00:04:00;;;;;;;3.17;2.10;;;7.80;84.50;;;;;;5015181;28;20025;-71
2021/04/30 00:06:26;;;;;;;2.60;2.05;;;7.80;84.40;;;;;;5014668;28;20034;-72
2021/04/30 00:08:52;;;;;;;4.53;3.53;;;7.80;84.40;;;;;;5014262;28;20022;-73
2021/04/30 00:11:17;;;;;;;5.50;3.45;;;7.80;84.40;;;;;;5015425;28;20036;-72
2021/04/30 00:13:43;;;;;;;4.57;3.15;;;7.80;84.50;;;;;;5015254;28;20056;-72
2021/04/30 00:16:08;;;;;;;4.53;3.33;;;7.80;84.60;;;;;;5015148;28;20378;-72
2021/04/30 00:18:35;;;;;;;4.60;3.50;;;7.80;84.60;;;;;;5014926;28;20471;-72
2021/04/30 00:21:02;;;;;;;3.63;2.58;;;7.80;84.70;;;;;;5014400;28;20026;-71
2021/04/30 00:23:29;;;;;;;4.03;2.33;;;7.80;84.70;;;;;;5014833;28;20479;-73
2021/04/30 00:25:56;;;;;;;3.40;2.60;;;7.90;84.70;;;;;;5014823;28;20049;-72
2021/04/30 00:28:23;;;;;;;3.25;2.20;;;7.90;84.60;;;;;;5014739;28;20075;-71
2021/04/30 00:30:49;;;;;;;3.20;2.67;;;8.00;84.60;;;;;;5014746;28;20029;-72
2021/04/30 00:33:15;;;;;;;2.95;2.53;;;8.00;84.50;;;;;;5014691;28;20018;-72
2021/04/30 00:35:44;;;;;;;3.42;2.50;;;8.00;84.40;;;;;;5029416;28;20029;-72
2021/04/30 00:38:10;;;;;;;3.40;2.35;;;8.00;84.50;;;;;;5014450;28;20537;-71
2021/04/30 00:40:36;;;;;;;2.58;2.10;;;8.00;84.50;;;;;;5014527;28;20425;-71
2021/04/30 00:43:02;;;;;;;2.22;1.60;;;8.10;84.50;;;;;;5014616;28;20045;-72
2021/04/30 00:45:30;;;;;;;2.35;1.77;;;8.10;84.30;;;;;;5029617;28;20088;-72
2021/04/30 00:47:56;;;;;;;3.20;2.10;;;8.20;84.30;;;;;;5014522;28;20105;-72
2021/04/30 00:50:24;;;;;;;2.35;2.10;;;8.20;84.20;;;;;;5013910;28;20033;-73
2021/04/30 00:52:51;;;;;;;2.58;2.00;;;8.20;84.40;;;;;;5014193;28;20026;-72
2021/04/30 00:55:17;;;;;;;3.25;2.13;;;8.20;84.30;;;;;;5014289;28;20033;-71
2021/04/30 00:57:54;;;;;;;3.22;2.65;;;8.20;84.30;;;;;;5029188;28;20074;-72
2021/04/30 01:00:21;;;;;;;2.05;1.50;;;8.20;84.30;;;;;;5014207;28;20608;-72
2021/04/30 01:02:47;;;;;;;2.47;1.83;;;8.20;84.10;;;;;;5014249;28;20466;-72
2021/04/30 01:05:12;;;;;;;1.52;1.33;;;8.20;84.20;;;;;;5013557;28;20041;-72
2021/04/30 01:07:38;;;;;;;1.80;1.60;;;8.30;84.20;;;;;;5014177;28;20083;-72
2021/04/30 01:10:05;;;;;;;2.80;2.38;;;8.30;84.10;;;;;;5014060;28;20382;-71
2021/04/30 01:12:31;;;;;;;2.65;1.70;;;8.30;84.30;;;;;;5013858;28;20107;-73
2021/04/30 01:14:56;;;;;;;1.77;1.30;;;8.20;84.30;;;;;;5014014;28;20069;-71
2021/04/30 01:17:22;;;;;;;2.40;1.60;;;8.20;84.40;;;;;;5013938;28;20026;-72
2021/04/30 01:19:48;;;;;;;1.58;1.48;;;8.30;84.50;;;;;;5013209;28;20033;-72
2021/04/30 01:22:39;;;;;;;2.13;1.67;;;8.30;84.40;;;;;;5013843;28;20026;-72
2021/04/30 01:25:10;;;;;;;3.00;2.70;;;8.30;84.30;;;;;;5013809;28;20128;-72
2021/04/30 01:27:36;;;;;;;2.40;1.75;;;8.30;84.30;;;;;;5013732;28;20033;-71
2021/04/30 01:30:05;;;;;;;5.18;2.80;;;8.40;84.30;;;;;;5013765;28;20030;-71
2021/04/30 01:32:31;;;;;;;2.50;1.65;;;8.40;84.30;;;;;;5013038;28;20493;-72
2021/04/30 01:34:57;;;;;;;2.08;1.73;;;8.30;84.20;;;;;;5013714;28;20042;-71
2021/04/30 01:37:24;;;;;;;1.73;1.33;;;8.30;84.30;;;;;;5013564;28;20030;-73
2021/04/30 02:13:32;;;;;;;1.50;1.25;;;8.50;84.30;;;;;;3979548;28;20049;-71
2021/04/30 02:15:58;;;;;;;2.60;1.75;;;8.50;84.20;;;;;;4993256;28;20030;-73
2021/04/30 02:18:24;;;;;;;1.27;1.15;;;8.50;84.10;;;;;;4993643;28;20058;-72
2021/04/30 02:20:50;;;;;;;1.20;1.10;;;8.60;84.10;;;;;;4993427;28;20062;-72
2021/04/30 02:23:16;;;;;;;1.35;1.15;;;8.60;84.10;;;;;;4993469;28;20023;-72
2021/04/30 02:25:42;;;;;;;1.35;1.23;;;8.60;84.10;;;;;;4993534;28;20093;-73
2021/04/30 02:28:08;;;;;;;1.15;1.08;;;8.60;84.10;;;;;;4993602;28;20027;-72
2021/04/30 02:30:37;;;;;;;1.77;1.50;;;8.70;84.10;;;;;;4993156;28;20022;-72
2021/04/30 02:33:03;;;;;;;1.45;1.30;;;8.60;84.10;;;;;;4994709;28;20073;-72
2021/04/30 02:35:38;;;;;;;1.60;1.20;;;8.60;84.30;;;;;;4997050;28;20073;-72
2021/04/30 02:38:05;;;;;;;1.40;1.20;;;8.60;84.50;;;;;;4997364;28;20027;-71
2021/04/30 02:40:32;;;;;;;1.20;1.10;;;8.60;84.40;;;;;;4997128;28;20023;-71
2021/04/30 02:43:04;;;;;;;0.98;0.85;;;8.60;84.50;;;;;;4997161;28;20191;-71
2021/04/30 02:45:30;;;;;;;1.58;1.08;;;8.60;84.60;;;;;;4996512;28;20038;-71
2021/04/30 02:47:57;;;;;;;2.28;1.55;;;8.60;84.40;;;;;;4997024;28;20022;-72
2021/04/30 02:50:26;;;;;;;2.78;1.55;;;8.60;84.50;;;;;;4996994;28;20034;-72
2021/04/30 02:52:52;;;;;;;2.60;1.40;;;8.60;84.50;;;;;;4995819;28;20031;-71
2021/04/30 02:55:20;;;;;;;2.55;1.63;;;8.60;84.50;;;;;;4996972;28;20467;-72
2021/04/30 02:57:53;;;;;;;1.23;1.13;;;8.60;84.50;;;;;;4996999;28;20014;-72
2021/04/30 03:00:20;;;;;;;1.42;1.33;;;8.70;84.50;;;;;;5011486;28;20041;-71
2021/04/30 03:02:45;;;;;;;1.55;1.38;;;8.70;84.40;;;;;;4996731;28;20471;-72
2021/04/30 03:05:14;;;;;;;1.42;1.33;;;8.70;84.40;;;;;;4996748;28;20038;-72
2021/04/30 03:07:40;;;;;;;1.55;1.20;;;8.70;84.90;;;;;;4996750;28;20096;-72
2021/04/30 03:10:07;;;;;;;1.65;1.27;;;8.70;84.20;;;;;;4996998;28;20058;-71
2021/04/30 03:12:33;;;;;;;1.33;1.23;;;8.70;84.30;;;;;;4996439;28;20105;-72
2021/04/30 03:14:58;;;;;;;1.27;1.17;;;8.70;84.60;;;;;;4996198;28;20034;-71
2021/04/30 03:17:24;;;;;;;2.22;1.88;;;8.70;84.50;;;;;;4996528;28;20105;-71
2021/04/30 03:19:49;;;;;;;1.48;1.20;;;8.70;84.50;;;;;;4996537;28;20479;-72
2021/04/30 03:22:15;;;;;;;1.50;1.23;;;8.70;84.40;;;;;;4996493;28;20479;-72
2021/04/30 03:24:41;;;;;;;1.42;1.27;;;8.70;84.40;;;;;;4996202;28;20471;-72
2021/04/30 03:27:06;;;;;;;1.52;1.08;;;8.70;85.10;;;;;;5011363;28;20026;-72
2021/04/30 03:29:32;;;;;;;1.40;1.30;;;8.80;84.50;;;;;;4995859;28;20092;-71
2021/04/30 03:31:57;;;;;;;4.25;1.67;;;8.80;84.50;;;;;;4996378;28;20065;-72
2021/04/30 03:34:23;;;;;;;1.33;1.00;;;8.80;84.40;;;;;;4996203;28;20031;-72
2021/04/30 03:36:48;;;;;;;1.77;1.52;;;8.80;84.40;;;;;;4996253;28;20062;-72
2021/04/30 03:39:14;;;;;;;2.25;1.52;;;8.80;84.40;;;;;;4996162;28;20352;-72
2021/04/30 03:41:39;;;;;;;2.67;1.70;;;8.70;84.40;;;;;;4996062;28;20541;-72
2021/04/30 03:44:05;;;;;;;1.50;1.38;;;8.70;84.70;;;;;;4994447;28;20021;-72
2021/04/30 03:46:31;;;;;;;2.03;1.63;;;8.60;84.90;;;;;;4995876;28;20121;-72
2021/04/30 03:48:56;;;;;;;3.45;2.25;;;8.60;84.80;;;;;;4996019;28;20100;-72
2021/04/30 03:51:22;;;;;;;2.17;1.80;;;8.50;85.00;;;;;;4996039;28;20030;-72
2021/04/30 03:53:48;;;;;;;4.38;2.50;;;8.40;85.20;;;;;;4995848;28;20022;-71
2021/04/30 03:56:13;;;;;;;2.70;1.90;;;8.40;85.30;;;;;;4995977;28;20022;-72
2021/04/30 03:58:39;;;;;;;2.42;2.22;;;8.30;85.40;;;;;;4995367;28;20026;-71
2021/04/30 04:01:06;;;;;;;4.13;2.35;;;8.30;85.50;;;;;;4995738;28;20101;-72
2021/04/30 04:03:32;;;;;;;3.13;2.58;;;8.30;85.50;;;;;;4995599;28;20371;-72
2021/04/30 04:05:58;;;;;;;2.60;2.15;;;8.40;85.50;;;;;;4995573;28;20077;-71
2021/04/30 04:08:23;;;;;;;2.38;1.60;;;8.40;85.40;;;;;;5010639;28;20414;-72
2021/04/30 04:10:49;;;;;;;2.95;1.63;;;8.50;85.30;;;;;;4995550;28;20019;-71
2021/04/30 04:13:14;;;;;;;1.83;1.50;;;8.50;85.10;;;;;;4994935;28;20129;-72
2021/04/30 04:15:40;;;;;;;2.35;1.90;;;8.60;85.00;;;;;;4995424;28;20069;-71
2021/04/30 04:18:05;;;;;;;1.33;1.23;;;8.60;84.90;;;;;;4995428;28;20065;-71
2021/04/30 04:20:31;;;;;;;2.20;1.77;;;8.60;85.00;;;;;;4995454;28;20030;-72
2021/04/30 04:22:56;;;;;;;2.28;1.50;;;8.60;85.00;;;;;;5010459;28;20037;-73
2021/04/30 04:25:22;;;;;;;1.42;1.30;;;8.60;85.00;;;;;;4995642;28;20070;-72
2021/04/30 04:27:47;;;;;;;2.10;1.52;;;8.60;84.90;;;;;;4994871;28;20019;-71
2021/04/30 04:30:13;;;;;;;2.50;1.67;;;8.60;84.90;;;;;;4995298;28;20093;-71
2021/04/30 04:32:39;;;;;;;1.20;1.02;;;8.60;84.90;;;;;;4995199;28;20471;-72
2021/04/30 04:35:05;;;;;;;1.15;1.05;;;8.70;85.00;;;;;;4995330;28;20033;-72
2021/04/30 04:37:31;;;;;;;1.77;1.48;;;8.70;84.90;;;;;;4995015;28;20023;-72
2021/04/30 04:39:56;;;;;;;2.13;1.73;;;8.80;84.80;;;;;;4995120;28;20022;-72
2021/04/30 04:42:22;;;;;;;2.50;1.20;;;8.80;84.70;;;;;;4994557;28;20475;-73
2021/04/30 04:44:47;;;;;;;2.03;1.83;;;8.80;84.50;;;;;;4994942;28;20026;-71
2021/04/30 04:47:13;;;;;;;2.00;1.58;;;8.80;84.50;;;;;;4994977;28;20019;-71
2021/04/30 04:49:38;;;;;;;2.05;1.70;;;8.80;84.50;;;;;;5009773;28;20026;-71
2021/04/30 04:52:04;;;;;;;2.30;2.00;;;8.80;84.50;;;;;;5009851;28;20114;-71
2021/04/30 04:54:31;;;;;;;2.10;1.80;;;8.90;84.60;;;;;;4994365;28;20026;-73
2021/04/30 04:56:57;;;;;;;2.03;1.70;;;8.90;84.70;;;;;;4994263;28;20015;-73
2021/04/30 04:59:22;;;;;;;2.20;1.77;;;8.90;84.70;;;;;;4994542;28;20514;-72
2021/04/30 05:01:48;;;;;;;4.03;1.88;;;8.90;84.60;;;;;;4994638;28;20022;-71
2021/04/30 05:04:14;;;;;;;1.55;1.40;;;8.90;84.70;;;;;;4994538;28;20037;-71
2021/04/30 05:06:39;;;;;;;3.03;1.63;;;8.90;84.70;;;;;;5005934;28;20029;-71
2021/04/30 05:09:05;;;;;;;2.45;2.22;;;8.90;85.30;;;;;;5008929;28;20028;-71
2021/04/30 05:11:31;;;;;;;1.95;1.60;;;8.90;84.70;;;;;;5013394;28;20026;-70
2021/04/30 05:13:56;;;;;;;2.15;1.60;;;8.90;84.70;;;;;;5013495;28;20034;-70
2021/04/30 05:16:22;;;;;;;2.08;1.55;;;9.00;84.80;;;;;;5013756;28;20101;-70
2021/04/30 05:18:47;;;;;;;2.08;1.40;;;9.00;84.70;;;;;;5013724;28;20046;-70
2021/04/30 05:21:13;;;;;;;1.80;1.52;;;9.00;84.60;;;;;;5011108;28;20104;-71
2021/04/30 05:23:39;;;;;;;2.25;1.55;;;9.00;84.60;;;;;;5008041;28;20073;-70
2021/04/30 05:26:05;;;;;;;2.03;1.58;;;9.00;84.60;;;;;;5012978;28;20084;-70
2021/04/30 05:28:31;;;;;;;1.50;1.40;;;9.10;84.60;;;;;;5013603;28;20026;-71
2021/04/30 05:30:57;;;;;;;1.60;1.50;;;9.10;84.50;;;;;;5013498;28;20061;-71
2021/04/30 05:33:23;;;;;;;1.80;1.45;;;9.10;84.60;;;;;;5013425;28;20053;-71
2021/04/30 05:35:48;;;;;;;2.42;2.10;;;9.10;84.60;;;;;;5013511;28;20116;-72
2021/04/30 05:38:14;;;;;;;2.63;1.80;;;9.10;84.60;;;;;;5013431;28;20025;-72
2021/04/30 05:40:40;;;;;;;2.60;1.48;;;9.10;84.60;;;;;;5012895;28;20091;-72
2021/04/30 05:43:05;;;;;;;2.83;2.58;;;9.10;84.60;;;;;;5010445;28;20487;-71
2021/04/30 05:45:31;;;;;;;1.92;1.73;;;9.10;84.60;;;;;;5012886;28;20030;-71
2021/04/30 05:47:56;;;;;;;2.22;1.90;;;9.10;84.60;;;;;;5013342;28;20026;-71
2021/04/30 05:50:22;;;;;;;2.30;1.95;;;9.10;84.60;;;;;;5013323;28;20026;-71
2021/04/30 05:52:47;;;;;;;1.67;1.55;;;9.10;84.70;;;;;;5013373;28;20036;-70
2021/04/30 05:55:13;;;;;;;2.20;1.60;;;9.20;84.70;;;;;;5012676;28;20064;-70
2021/04/30 05:57:39;;;;;;;2.13;1.65;;;9.20;84.70;;;;;;5013083;28;20474;-71
2021/04/30 06:00:06;;;;;;;2.30;1.88;;;9.20;84.70;;;;;;5012079;28;20410;-70
2021/04/30 06:02:31;;;;;;;1.60;1.27;;;9.30;84.70;;;;;;5013317;28;20019;-70
2021/04/30 06:04:57;;;;;;;1.48;1.17;;;9.30;84.50;;;;;;5010537;28;20041;-71
2021/04/30 06:07:23;;;;;;;1.98;1.88;;;9.40;84.60;;;;;;5011801;28;20032;-71
2021/04/30 06:09:48;;;;;;;1.38;1.27;;;9.40;84.60;;;;;;5016720;28;20101;-71
2021/04/30 06:12:14;;;;;;;2.60;2.13;;;9.40;84.50;;;;;;5016924;28;20021;-72
2021/04/30 06:14:39;;;;;;;1.63;1.50;;;9.50;84.50;;;;;;5017541;28;20056;-73
2021/04/30 06:17:05;;;;;;;2.22;1.75;;;9.50;84.50;;;;;;5017195;28;20030;-73
2021/04/30 06:19:30;;;;;;;5.32;2.20;;;9.50;84.40;;;;;;5016990;28;20026;-73
2021/04/30 06:21:56;;;;;;;2.60;2.03;;;9.60;84.50;;;;;;5016987;28;20109;-73
2021/04/30 06:24:23;;;;;;;3.67;2.63;;;9.60;84.50;;;;;;5010207;28;20110;-73
2021/04/30 06:26:49;;;;;;;3.38;1.55;;;9.50;84.50;;;;;;5013926;28;20533;-73
2021/04/30 06:29:14;;;;;;;2.40;1.65;;;9.60;84.50;;;;;;5016880;28;20050;-72
2021/04/30 06:31:40;;;;;;;3.10;2.13;;;9.60;84.50;;;;;;5016761;28;20149;-73
2021/04/30 06:34:06;;;;;;;3.25;2.15;;;9.60;84.60;;;;;;5016590;28;20018;-72
2021/04/30 06:36:32;;;;;;;1.77;1.52;;;9.60;84.60;;;;;;5016760;28;20033;-73
2021/04/30 06:38:58;;;;;;;2.65;2.20;;;9.60;84.70;;;;;;5016191;28;20025;-73
2021/04/30 06:41:23;;;;;;;2.17;1.90;;;9.60;84.60;;;;;;5013765;28;20026;-73
2021/04/30 06:43:49;;;;;;;2.25;1.67;;;9.70;84.60;;;;;;5016699;28;20050;-74
2021/04/30 06:46:15;;;;;;;2.33;1.75;;;9.70;84.40;;;;;;5016764;28;20034;-74
2021/04/30 06:48:40;;;;;;;3.25;1.95;;;9.70;84.30;;;;;;5016664;28;20037;-73
2021/04/30 06:51:06;;;;;;;1.90;1.70;;;9.70;84.40;;;;;;5016662;28;20053;-74
2021/04/30 06:53:31;;;;;;;2.05;1.85;;;9.70;84.50;;;;;;5016007;28;20406;-73
2021/04/30 06:55:57;;;;;;;2.15;1.55;;;9.80;84.70;;;;;;5016432;28;20029;-74
2021/04/30 06:58:23;;;;;;;1.85;1.60;;;9.80;84.70;;;;;;5015209;28;20022;-74
2021/04/30 07:00:49;;;;;;;2.90;2.17;;;9.80;84.70;;;;;;5016704;28;20052;-74
2021/04/30 07:03:14;;;;;;;2.63;2.05;;;9.90;84.60;;;;;;5016709;28;20029;-74
2021/04/30 07:05:40;;;;;;;2.38;1.83;;;10.00;84.50;;;;;;5031646;28;20038;-74
2021/04/30 07:08:05;;;;;;;2.40;2.10;;;10.10;84.30;;;;;;5016230;28;20057;-73
2021/04/30 07:10:32;;;;;;;2.33;1.52;;;10.20;84.00;;;;;;5016410;28;20026;-73
2021/04/30 07:12:58;;;;;;;2.00;1.67;;;10.30;83.90;;;;;;5016110;28;20037;-75
2021/04/30 07:15:24;;;;;;;2.38;2.17;;;10.40;83.70;;;;;;5016187;28;20538;-75
2021/04/30 07:17:50;;;;;;;3.60;2.72;;;10.40;83.80;;;;;;5015979;28;20108;-74
2021/04/30 07:20:16;;;;;;;3.10;2.25;;;10.40;84.10;;;;;;5016251;28;20052;-74
2021/04/30 07:22:44;;;;;;;4.03;2.33;;;10.40;84.10;;;;;;5009459;28;20378;-74
2021/04/30 07:25:10;;;;;;;4.68;3.22;;;10.50;84.20;;;;;;4997284;28;20133;-73
2021/04/30 07:27:36;;;;;;;2.13;1.75;;;10.60;84.10;;;;;;4993558;28;20093;-74
2021/04/30 07:30:03;;;;;;;2.83;2.30;;;10.70;84.10;;;;;;5006934;28;20424;-74
2021/04/30 07:32:29;;;;;;;4.25;2.78;;;10.80;83.90;;;;;;5012402;28;20133;-74
2021/04/30 07:34:54;;;;;;;4.38;2.70;;;10.80;83.80;;;;;;5012381;28;20042;-74
2021/04/30 07:37:20;;;;;;;2.97;1.90;;;10.80;83.90;;;;;;5027890;28;20352;-75
2021/04/30 07:39:45;;;;;;;3.65;2.42;;;10.80;84.00;;;;;;5012741;28;20065;-74
2021/04/30 07:42:13;;;;;;;2.35;1.65;;;10.90;84.10;;;;;;5012073;28;20030;-74
2021/04/30 07:44:39;;;;;;;3.95;2.45;;;10.90;84.10;;;;;;5012733;28;20033;-75
2021/04/30 07:47:05;;;;;;;5.28;2.47;;;10.90;84.10;;;;;;5012880;28;20022;-74
2021/04/30 07:49:31;;;;;;;4.40;3.47;;;10.90;84.00;;;;;;5012042;28;20397;-73
2021/04/30 07:51:57;;;;;;;3.60;2.80;;;11.00;84.10;;;;;;5012679;28;20021;-74
2021/04/30 07:54:23;;;;;;;2.60;2.22;;;10.90;84.10;;;;;;5012605;28;20022;-73
2021/04/30 07:56:50;;;;;;;4.38;3.10;;;10.80;84.20;;;;;;5012427;28;20057;-73
2021/04/30 07:59:16;;;;;;;4.78;2.95;;;10.80;84.50;;;;;;5012331;28;20489;-73
2021/04/30 08:01:41;;;;;;;3.83;3.03;;;10.70;84.60;;;;;;5012479;28;20478;-73
2021/04/30 08:04:07;;;;;;;3.97;2.45;;;10.70;85.30;;;;;;5012149;28;20390;-74
2021/04/30 08:06:33;;;;;;;4.50;2.40;;;10.70;84.80;;;;;;5027670;28;20045;-73
2021/04/30 08:08:58;;;;;;;5.45;3.15;;;10.70;85.30;;;;;;5012297;28;20029;-74
2021/04/30 08:11:24;;;;;;;3.70;2.70;;;10.70;84.60;;;;;;5012259;28;20026;-73
2021/04/30 08:13:49;;;;;;;4.95;2.95;;;10.70;84.60;;;;;;5010371;28;20049;-72
2021/04/30 08:16:15;;;;;;;4.68;3.55;;;10.80;84.60;;;;;;5038757;28;20025;-73
2021/04/30 08:18:40;;;;;;;3.75;2.72;;;10.70;84.50;;;;;;5014150;28;20523;-73
2021/04/30 08:21:07;;;;;;;3.92;2.53;;;10.70;84.70;;;;;;5010180;28;20110;-72
2021/04/30 08:23:33;;;;;;;3.97;2.90;;;10.70;84.70;;;;;;5019333;28;20026;-73
2021/04/30 08:25:59;;;;;;;3.25;2.55;;;10.80;84.80;;;;;;5013088;28;20041;-72
2021/04/30 08:28:25;;;;;;;3.75;2.75;;;10.90;84.70;;;;;;5014776;28;20398;-74
2021/04/30 08:30:51;;;;;;;4.10;2.83;;;11.10;84.50;;;;;;5013969;28;20030;-73
2021/04/30 08:33:16;;;;;;;4.80;2.88;;;11.20;84.10;;;;;;5014093;28;20022;-73
2021/04/30 08:35:42;;;;;;;4.40;2.70;;;11.40;83.90;;;;;;5014615;28;20045;-74
2021/04/30 08:38:07;;;;;;;3.70;2.45;;;11.50;83.70;;;;;;5011777;28;20089;-73
2021/04/30 08:40:33;;;;;;;3.63;2.38;;;11.60;83.70;;;;;;5014347;28;20026;-73
2021/04/30 08:42:59;;;;;;;3.30;2.50;;;11.60;83.60;;;;;;5011620;28;20053;-74
2021/04/30 08:45:25;;;;;;;3.55;2.80;;;11.70;83.70;;;;;;5014299;28;20127;-73
2021/04/30 08:47:51;;;;;;;3.50;2.80;;;11.70;83.70;;;;;;5011109;28;20068;-74
2021/04/30 08:50:18;;;;;;;3.90;2.63;;;11.70;83.70;;;;;;5014139;28;20417;-74
2021/04/30 08:52:44;;;;;;;4.03;2.78;;;11.80;83.80;;;;;;5013811;28;20096;-73
2021/04/30 08:55:14;;;;;;;4.35;2.95;;;11.80;83.80;;;;;;5014025;28;20382;-74
2021/04/30 08:57:42;;;;;;;4.30;2.97;;;11.80;83.80;;;;;;5014283;28;20371;-73
2021/04/30 09:00:09;;;;;;;6.07;3.08;;;11.90;83.70;;;;;;5013921;28;20014;-73
2021/04/30 09:02:38;;;;;;;3.42;2.90;;;12.00;83.70;;;;;;5013691;28;20386;-74
2021/04/30 09:05:05;;;;;;;5.75;4.25;;;12.10;83.50;;;;;;5013711;28;20080;-74
2021/04/30 09:07:31;;;;;;;5.22;3.70;;;12.10;83.30;;;;;;5012457;28;20060;-75
2021/04/30 09:09:58;;;;;;;4.32;2.88;;;12.10;83.30;;;;;;5014232;28;20026;-76
2021/04/30 09:12:24;;;;;;;3.38;2.35;;;12.30;83.40;;;;;;5014485;28;20030;-76
2021/04/30 09:14:50;;;;;;;4.80;3.97;;;12.30;83.10;;;;;;5013863;28;20053;-73
2021/04/30 09:17:16;;;;;;;5.68;4.30;;;12.40;83.00;;;;;;5013986;28;20041;-79
2021/04/30 09:19:54;;;;;;;3.95;3.15;;;12.50;83.00;;;;;;5013865;28;20029;-75
2021/04/30 09:22:23;;;;;;;6.18;3.50;;;12.40;82.90;;;;;;5013867;28;20037;-74
2021/04/30 09:24:50;;;;;;;;;;;12.30;83.30;;;;;;5011034;28;20080;-73
2021/04/30 09:27:28;;;;;;;3.90;3.17;;;12.40;83.20;;;;;;5013452;28;19909;-73
2021/04/30 09:29:53;;;;;;;4.00;3.10;;;12.50;83.10;;;;;;5012570;28;20048;-75
2021/04/30 09:32:19;;;;;;;4.28;3.15;;;12.50;83.00;;;;;;5013403;28;20030;-76
2021/04/30 09:34:45;;;;;;;4.93;3.53;;;12.60;82.90;;;;;;5013884;28;20029;-75
2021/04/30 09:37:17;;;;;;;3.97;3.22;;;12.70;82.80;;;;;;5018692;28;20544;-76
2021/04/30 09:40:00;;;;;;;5.28;3.78;;;12.90;82.60;;;;;;4994526;28;20033;-75
2021/04/30 09:42:31;;;;;;;5.05;3.60;;;13.00;82.10;;;;;;4994313;28;20105;-75
2021/04/30 09:44:58;;;;;;;6.40;4.72;;;12.90;82.20;;;;;;5006906;28;20068;-75
2021/04/30 09:47:25;;;;;;;6.13;3.67;;;12.70;82.50;;;;;;5013584;28;20538;-76
2021/04/30 09:49:55;;;;;;;5.55;4.10;;;12.40;83.10;;;;;;5013637;28;20030;-75
2021/04/30 09:52:22;;;;;;;5.18;3.63;;;12.30;83.40;;;;;;5013050;28;20108;-75
2021/04/30 09:54:49;;;;;;;4.75;3.20;;;12.10;83.70;;;;;;5013483;28;20049;-73
2021/04/30 09:57:17;;;;;;;4.93;3.60;;;12.00;84.00;;;;;;5013283;28;20414;-76
2021/04/30 09:59:56;;;;;;;5.50;3.28;;;11.80;84.30;;;;;;5013291;28;20049;-76
2021/04/30 10:02:23;;;;;;;5.20;3.75;;;11.70;84.50;;;;;;5013512;28;20088;-74
2021/04/30 10:04:51;;;;;;;3.78;2.70;;;11.60;84.60;;;;;;5012888;28;20041;-75
2021/04/30 10:07:38;;;;;;;4.63;3.20;;;11.50;84.70;;;;;;5013499;28;20105;-75
2021/04/30 10:10:22;;;;;;;5.30;4.10;;;11.50;84.70;;;;;;5013363;28;20470;-75
2021/04/30 10:12:54;;;;;;;4.82;3.90;;;11.40;84.70;;;;;;5013081;28;20104;-76
2021/04/30 10:15:21;;;;;;;3.72;3.03;;;11.30;85.00;;;;;;5012732;28;20022;-76
2021/04/30 10:17:55;;;;;;;4.18;3.05;;;11.20;85.20;;;;;;5012848;28;20030;-76
2021/04/30 10:20:21;;;;;;;5.25;3.75;;;11.10;85.30;;;;;;5011680;28;20037;-76
2021/04/30 10:22:46;;;;;;;5.45;3.35;;;11.10;85.50;;;;;;5010271;28;20022;-76
2021/04/30 10:25:20;;;;;;;4.88;3.50;;;10.90;85.70;;;;;;5026386;28;20034;-77
2021/04/30 10:27:53;;;;;;;4.65;3.53;;;10.80;86.10;;;;;;5009890;28;20048;-78
2021/04/30 10:30:39;;;;;;;4.13;2.95;;;10.70;86.50;;;;;;5012055;28;20117;-76
2021/04/30 10:33:26;;;;;;;5.20;3.30;;;10.70;86.50;;;;;;4993444;28;20027;-78
2021/04/30 10:36:01;;;;;;;4.90;3.58;;;10.70;86.30;;;;;;4995568;28;20021;-78
2021/04/30 10:38:29;;;;;;;5.25;3.90;;;10.80;86.20;;;;;;5011910;28;20507;-76
2021/04/30 10:40:57;;;;;;;5.65;4.07;;;10.80;86.10;;;;;;5010828;28;20101;-76
2021/04/30 10:43:23;;;;;;;4.95;3.80;;;10.80;86.20;;;;;;5023923;28;20124;-77
2021/04/30 10:46:04;;;;;;;5.82;3.83;;;10.80;86.10;;;;;;5012835;28;20117;-77
2021/04/30 10:48:31;;;;;;;5.57;3.85;;;10.80;86.10;;;;;;5007944;28;20402;-76
2021/04/30 10:51:15;;;;;;;5.10;3.30;;;10.60;86.60;;;;;;5003317;28;20740;-76
2021/04/30 10:53:43;;;;;;;4.38;3.20;;;10.50;86.90;;;;;;5003988;28;20014;-76
2021/04/30 10:56:30;;;;;;;3.78;2.92;;;10.40;87.00;;;;;;5010632;28;20018;-76
2021/04/30 10:58:56;;;;;;;4.47;3.45;;;10.40;87.10;;;;;;4999867;28;20036;-76
2021/04/30 11:01:31;;;;;;;4.00;2.75;;;10.30;87.10;;;;;;5016526;28;20026;-77
2021/04/30 11:04:18;;;;;;;4.07;2.50;;;10.20;87.90;;;;;;5011093;28;20030;-76
2021/04/30 11:06:53;;;;;;;3.15;2.38;;;10.10;87.20;;;;;;5016493;28;20038;-77
2021/04/30 11:09:33;;;;;;;3.65;2.63;;;10.00;87.40;;;;;;5016153;28;20026;-77
2021/04/30 11:12:20;;;;;;;3.55;2.88;;;9.80;87.90;;;;;;5016283;28;20045;-78
2021/04/30 11:15:04;;;;;;;3.10;2.58;;;9.80;88.00;;;;;;5015714;28;20050;-78
2021/04/30 11:17:46;;;;;;;2.20;1.70;;;9.90;87.90;;;;;;5014987;28;20038;-77
2021/04/30 11:20:17;;;;;;;2.85;2.17;;;10.00;88.20;;;;;;5016139;28;20045;-78
2021/04/30 11:23:02;;;;;;;2.38;1.77;;;10.00;87.40;;;;;;5016039;28;20068;-79
2021/04/30 11:25:28;;;;;;;3.50;2.55;;;10.00;87.30;;;;;;5015935;28;20030;-77
2021/04/30 11:27:55;;;;;;;3.45;2.63;;;10.20;87.20;;;;;;5030689;28;20521;-77
2021/04/30 11:30:22;;;;;;;2.92;1.80;;;10.30;87.00;;;;;;5015939;28;20050;-77
2021/04/30 11:32:57;;;;;;;2.78;2.42;;;10.50;86.70;;;;;;5016090;28;20336;-78
2021/04/30 11:35:23;;;;;;;2.53;2.00;;;10.70;86.50;;;;;;5014416;28;20052;-76
2021/04/30 11:37:49;;;;;;;4.38;2.42;;;10.80;86.20;;;;;;5015844;28;20055;-77
2021/04/30 11:40:16;;;;;;;3.40;2.53;;;11.00;86.10;;;;;;5015673;28;20092;-76
2021/04/30 11:42:41;;;;;;;4.20;2.80;;;11.10;85.90;;;;;;5015163;28;20018;-76
2021/04/30 11:45:08;;;;;;;3.78;2.53;;;11.10;85.70;;;;;;5015500;28;20125;-76
2021/04/30 11:47:36;;;;;;;3.45;2.75;;;11.10;85.90;;;;;;5014335;28;20030;-77
2021/04/30 11:50:04;;;;;;;5.07;3.33;;;11.30;86.00;;;;;;5014870;28;20045;-78
2021/04/30 11:52:36;;;;;;;4.80;2.88;;;11.40;85.90;;;;;;4996075;28;20041;-75
2021/04/30 11:55:16;;;;;;;2.55;2.08;;;11.60;85.60;;;;;;5012968;28;20482;-76
2021/04/30 11:57:54;;;;;;;4.63;3.10;;;11.80;85.20;;;;;;5012240;28;20033;-78
2021/04/30 12:00:23;;;;;;;4.90;3.17;;;12.10;84.90;;;;;;5012560;28;20030;-76
2021/04/30 12:03:06;;;;;;;4.60;3.03;;;12.40;84.60;;;;;;5012495;28;20026;-75
2021/04/30 12:05:32;;;;;;;5.20;3.33;;;12.60;84.20;;;;;;5011490;28;20115;-75
2021/04/30 12:07:59;;;;;;;4.70;3.38;;;12.70;84.00;;;;;;5012335;28;20041;-76
2021/04/30 12:10:33;;;;;;;4.93;3.70;;;12.70;84.00;;;;;;5012288;28;20030;-77
2021/04/30 12:12:59;;;;;;;4.40;3.10;;;12.80;84.10;;;;;;5012125;28;20407;-77
2021/04/30 12:15:28;;;;;;;4.82;3.10;;;13.00;84.00;;;;;;5012083;28;20034;-76
2021/04/30 12:17:53;;;;;;;5.10;2.88;;;13.10;83.80;;;;;;5012348;28;20028;-76
2021/04/30 12:20:23;;;;;;;3.90;3.13;;;13.20;84.50;;;;;;5012137;28;20113;-76
2021/04/30 12:22:55;;;;;;;3.97;2.60;;;13.30;83.80;;;;;;5012148;28;20032;-77
2021/04/30 12:25:44;;;;;;;5.93;2.95;;;13.40;83.80;;;;;;5011556;28;20065;-76
2021/04/30 12:28:27;;;;;;;4.88;3.55;;;13.30;83.70;;;;;;5011911;28;20048;-77
2021/04/30 12:30:54;;;;;;;5.18;3.88;;;13.30;84.00;;;;;;5003072;28;20022;-76
2021/04/30 12:33:39;;;;;;;4.20;3.10;;;13.20;84.00;;;;;;4999776;28;20679;-76
2021/04/30 12:36:08;;;;;;;3.42;2.40;;;13.20;84.10;;;;;;4993834;28;20069;-76
2021/04/30 12:38:35;;;;;;;4.05;2.67;;;13.30;84.20;;;;;;4995220;28;20034;-76
2021/04/30 12:41:26;;;;;;;4.40;3.42;;;13.40;84.00;;;;;;5006610;28;20022;-76
2021/04/30 12:44:01;;;;;;;4.75;3.13;;;13.90;84.00;;;;;;5029566;28;20478;-76
2021/04/30 12:46:28;;;;;;;3.20;2.75;;;14.70;82.10;;;;;;5014408;28;20033;-75
2021/04/30 12:48:57;;;;;;;3.40;2.33;;;15.30;81.20;;;;;;5014445;28;20026;-77
2021/04/30 12:51:31;;;;;;;4.82;3.20;;;15.90;80.60;;;;;;5014482;28;20080;-76
2021/04/30 12:53:57;;;;;;;4.05;2.97;;;16.50;79.30;;;;;;5014243;28;20018;-77
2021/04/30 12:56:26;;;;;;;4.22;3.35;;;17.10;79.40;;;;;;5014425;28;20029;-76
2021/04/30 12:59:09;;;;;;;4.50;3.35;;;17.40;77.40;;;;;;5014446;28;20032;-75
2021/04/30 13:01:36;;;;;;;4.32;2.83;;;16.70;77.70;;;;;;5014464;28;20517;-76
2021/04/30 13:04:02;;;;;;;4.03;2.92;;;16.10;79.50;;;;;;5014454;28;20028;-75
2021/04/30 13:06:30;;;;;;;3.17;2.22;;;15.90;80.50;;;;;;5014278;28;20121;-75
2021/04/30 13:08:58;;;;;;;3.80;2.50;;;16.10;80.80;;;;;;5013676;28;20101;-75
2021/04/30 13:11:25;;;;;;;3.22;2.55;;;16.20;80.00;;;;;;5013940;28;20021;-75
2021/04/30 13:14:03;;;;;;;3.05;2.35;;;16.00;80.30;;;;;;5013935;28;20398;-74
2021/04/30 13:16:37;;;;;;;3.85;2.60;;;15.80;80.60;;;;;;5013905;28;20031;-75
2021/04/30 13:19:23;;;;;;;3.63;2.50;;;15.80;80.90;;;;;;5014067;28;20069;-75
2021/04/30 13:21:52;;;;;;;3.42;2.20;;;16.30;80.70;;;;;;5013266;28;20045;-78
2021/04/30 13:24:24;;;;;;;4.03;3.08;;;16.80;80.00;;;;;;5012525;28;20026;-76
2021/04/30 13:27:08;;;;;;;3.10;2.17;;;17.50;78.90;;;;;;5013927;28;20042;-76
2021/04/30 13:29:42;;;;;;;3.75;2.20;;;18.10;77.60;;;;;;5012988;28;20026;-77
2021/04/30 13:32:08;;;;;;;3.63;2.28;;;18.30;76.80;;;;;;5014286;28;20029;-78